Time;durP1;ratioP1;P1;durP2;ratioP2;P2;SDS_P1;SDS_P2;PMS_P1;PMS_P2;Temp;Humidity;BMP_temperature;BMP_pressure;BME280_temperature;BME280_humidity;BME280_pressure;Samples;Min_cycle;Max_cycle;Signal;HPM_P1;HPM_P2
2022/08/10 00:01:04;;;;;;;2.08;1.98;;;18.40;99.90;;;;;;5036210;28;20204;-88
2022/08/10 00:03:30;;;;;;;2.88;2.40;;;18.40;99.90;;;;;;5037091;28;20182;-88
2022/08/10 00:05:56;;;;;;;2.92;2.40;;;18.20;99.90;;;;;;5037373;28;20185;-88
2022/08/10 00:08:26;;;;;;;3.07;2.10;;;18.10;99.90;;;;;;5037513;28;20178;-89
2022/08/10 00:10:53;;;;;;;2.87;2.10;;;17.90;99.90;;;;;;5036760;28;20189;-88
2022/08/10 00:13:20;;;;;;;3.73;2.17;;;18.00;99.90;;;;;;5037236;28;20188;-88
2022/08/10 00:15:46;;;;;;;3.03;2.40;;;17.90;99.90;;;;;;5037227;28;20194;-88
2022/08/10 00:18:12;;;;;;;3.50;2.47;;;17.90;99.90;;;;;;5035591;28;20292;-88
2022/08/10 00:20:38;;;;;;;3.92;2.17;;;17.90;99.90;;;;;;5036480;28;20174;-88
2022/08/10 00:23:04;;;;;;;2.80;2.27;;;17.90;99.90;;;;;;5040332;28;20197;-88
2022/08/10 00:25:30;;;;;;;2.17;2.07;;;17.90;99.90;;;;;;5044694;28;20190;-88
2022/08/10 00:27:56;;;;;;;2.50;2.13;;;17.90;99.90;;;;;;5037620;28;20182;-88
2022/08/10 00:30:22;;;;;;;2.30;2.10;;;17.90;99.90;;;;;;5053403;28;20182;-88
2022/08/10 00:32:48;;;;;;;2.50;2.30;;;17.90;99.90;;;;;;5052574;28;20208;-87
2022/08/10 00:35:14;;;;;;;4.33;2.57;;;17.90;99.90;;;;;;5036832;28;20193;-88
2022/08/10 00:37:40;;;;;;;3.13;2.60;;;17.80;99.90;;;;;;5036908;28;20170;-88
2022/08/10 00:40:06;;;;;;;2.90;2.60;;;17.80;99.90;;;;;;5036422;28;20188;-88
2022/08/10 00:42:32;;;;;;;3.93;2.20;;;17.80;99.90;;;;;;5036710;28;20193;-88
2022/08/10 00:44:58;;;;;;;2.33;2.13;;;17.80;99.90;;;;;;5036234;28;20232;-88
2022/08/10 00:47:24;;;;;;;2.65;2.45;;;17.80;99.90;;;;;;5036200;28;20174;-87
2022/08/10 00:49:50;;;;;;;3.17;2.43;;;17.70;99.90;;;;;;5036141;28;20190;-88
2022/08/10 00:52:18;;;;;;;2.53;2.27;;;17.60;99.90;;;;;;5035607;28;20204;-88
2022/08/10 00:54:46;;;;;;;3.80;2.40;;;17.60;99.90;;;;;;5035732;28;20185;-88
2022/08/10 00:57:13;;;;;;;2.63;2.23;;;17.60;99.90;;;;;;5035258;28;20206;-88
2022/08/10 00:59:40;;;;;;;2.47;2.27;;;17.50;99.90;;;;;;5035721;28;20197;-88
2022/08/10 01:02:06;;;;;;;3.30;2.47;;;17.50;99.90;;;;;;5035243;28;20201;-88
2022/08/10 01:04:32;;;;;;;2.53;2.17;;;17.40;99.90;;;;;;5036237;28;20242;-88
2022/08/10 01:07:20;;;;;;;2.90;2.47;;;17.40;99.90;;;;;;5036559;28;20279;-88
2022/08/10 01:10:02;;;;;;;2.67;2.40;;;17.30;99.90;;;;;;5035760;28;20182;-88
2022/08/10 01:12:35;;;;;;;2.33;2.13;;;17.30;99.90;;;;;;5035982;28;20201;-88
2022/08/10 01:15:13;;;;;;;3.60;2.97;;;17.30;99.90;;;;;;5036049;28;20178;-88
2022/08/10 01:18:11;;;;;;;3.77;2.80;;;17.30;99.90;;;;;;5035691;28;20166;-88
2022/08/10 01:20:43;;;;;;;2.50;2.30;;;17.30;99.90;;;;;;5032452;28;20192;-88
2022/08/10 01:23:45;;;;;;;2.83;2.57;;;17.10;99.90;;;;;;5036118;28;20660;-88
2022/08/10 01:26:26;;;;;;;3.23;2.70;;;17.10;99.90;;;;;;5025748;28;20190;-88
2022/08/10 01:29:20;;;;;;;3.57;2.50;;;17.10;99.90;;;;;;5035185;28;20180;-88
2022/08/10 01:31:52;;;;;;;4.20;2.50;;;17.00;99.90;;;;;;5035141;28;20208;-88
2022/08/10 01:34:32;;;;;;;2.97;2.60;;;17.00;99.90;;;;;;5035292;28;20186;-88
2022/08/10 01:37:07;;;;;;;4.07;2.73;;;16.90;99.90;;;;;;5036342;28;20205;-88
2022/08/10 01:39:39;;;;;;;2.80;2.60;;;16.90;99.90;;;;;;5039410;28;20192;-88
2022/08/10 01:42:06;;;;;;;3.13;2.60;;;16.90;99.90;;;;;;5039153;28;20197;-88
2022/08/10 01:44:43;;;;;;;4.57;2.43;;;16.80;99.90;;;;;;5039344;28;20181;-88
2022/08/10 01:50:27;;;;;;;3.00;2.70;;;16.80;99.90;;;;;;5055610;28;20281;-88
2022/08/10 01:53:01;;;;;;;3.67;2.70;;;16.70;99.90;;;;;;5055307;28;20209;-87
2022/08/10 01:55:31;;;;;;;4.13;2.70;;;16.70;99.90;;;;;;5066401;28;20182;-88
2022/08/10 01:58:02;;;;;;;2.90;2.70;;;16.60;99.90;;;;;;5055823;28;20170;-88
2022/08/10 02:00:31;;;;;;;2.73;2.20;;;16.60;99.90;;;;;;5038601;28;20177;-88
2022/08/10 02:02:59;;;;;;;4.03;2.40;;;16.60;99.90;;;;;;5038675;28;20194;-88
2022/08/10 02:05:28;;;;;;;2.80;2.60;;;16.60;99.90;;;;;;5055762;28;20174;-88
2022/08/10 02:07:58;;;;;;;3.00;2.70;;;16.70;99.90;;;;;;5038857;28;20182;-88
2022/08/10 02:10:26;;;;;;;6.13;2.60;;;16.60;99.90;;;;;;5038878;28;20209;-89
2022/08/10 02:12:55;;;;;;;3.13;2.80;;;16.60;99.90;;;;;;5038556;28;20202;-88
2022/08/10 02:15:24;;;;;;;3.90;2.60;;;16.60;99.90;;;;;;5038645;28;20182;-88
2022/08/10 02:17:58;;;;;;;5.73;2.90;;;16.60;99.90;;;;;;5039103;28;20170;-88
2022/08/10 02:20:26;;;;;;;2.67;2.47;;;16.50;99.90;;;;;;5038405;28;20174;-88
2022/08/10 02:22:59;;;;;;;4.83;2.97;;;16.40;99.90;;;;;;5048534;28;20206;-87
2022/08/10 02:25:26;;;;;;;3.03;2.50;;;16.30;99.90;;;;;;5050687;28;20189;-88
2022/08/10 02:27:53;;;;;;;3.00;2.70;;;16.30;99.90;;;;;;5039156;28;20185;-88
2022/08/10 02:30:20;;;;;;;3.43;2.87;;;16.30;99.90;;;;;;5038239;28;20307;-88
2022/08/10 02:32:48;;;;;;;3.27;2.70;;;16.40;99.90;;;;;;5037916;28;20242;-88
2022/08/10 02:35:14;;;;;;;3.00;2.80;;;16.30;99.90;;;;;;5054601;28;20227;-88
2022/08/10 02:37:45;;;;;;;2.90;2.70;;;16.30;99.90;;;;;;5018519;28;20187;-88
2022/08/10 02:40:11;;;;;;;2.80;2.60;;;16.20;99.90;;;;;;5018616;28;20871;-88
2022/08/10 02:42:54;;;;;;;5.07;2.70;;;16.20;99.90;;;;;;5037610;28;20225;-88
2022/08/10 02:45:27;;;;;;;3.57;3.03;;;16.10;99.90;;;;;;5038010;28;20220;-88
2022/08/10 02:48:00;;;;;;;2.60;2.40;;;16.10;99.90;;;;;;5037472;28;20178;-88
2022/08/10 02:50:28;;;;;;;3.27;2.60;;;16.10;99.90;;;;;;5037929;28;20178;-88
2022/08/10 02:53:21;;;;;;;2.87;2.67;;;16.00;99.90;;;;;;5037937;28;20336;-88
2022/08/10 02:56:35;;;;;;;3.60;2.60;;;16.00;99.90;;;;;;5037699;28;20198;-88
2022/08/10 02:59:28;;;;;;;4.03;3.07;;;16.00;99.90;;;;;;5037827;28;20185;-87
2022/08/10 03:02:05;;;;;;;4.30;2.90;;;16.00;99.90;;;;;;5037384;28;20202;-87
2022/08/10 03:04:40;;;;;;;3.50;2.70;;;16.00;99.90;;;;;;5037923;28;20174;-88
2022/08/10 03:07:11;;;;;;;3.07;2.83;;;16.00;99.90;;;;;;5037428;28;20271;-89
2022/08/10 03:09:39;;;;;;;3.63;2.83;;;16.10;99.90;;;;;;5037194;28;20196;-89
2022/08/10 03:12:08;;;;;;;3.20;2.73;;;16.10;99.90;;;;;;5036919;28;20197;-89
2022/08/10 03:14:36;;;;;;;4.03;2.80;;;16.10;99.90;;;;;;5037204;28;20182;-89
2022/08/10 03:17:03;;;;;;;5.17;2.97;;;16.10;99.90;;;;;;5037188;28;20236;-88
2022/08/10 03:19:32;;;;;;;3.00;2.70;;;16.00;99.90;;;;;;5037195;28;20245;-88
2022/08/10 03:21:59;;;;;;;2.97;2.70;;;16.00;99.90;;;;;;5053253;28;20204;-89
2022/08/10 03:24:27;;;;;;;3.07;2.83;;;15.90;99.90;;;;;;5033803;28;20221;-88
2022/08/10 03:26:54;;;;;;;4.30;2.80;;;15.90;99.90;;;;;;5031519;28;20178;-89
2022/08/10 03:29:21;;;;;;;3.50;3.20;;;15.80;99.90;;;;;;5036466;28;20217;-89
2022/08/10 03:31:49;;;;;;;3.30;2.70;;;15.80;99.90;;;;;;5053266;28;20682;-89
2022/08/10 03:34:16;;;;;;;5.93;2.83;;;15.70;99.90;;;;;;5036885;28;20220;-88
2022/08/10 03:36:43;;;;;;;2.90;2.60;;;15.70;99.90;;;;;;5037122;28;20202;-89
2022/08/10 03:39:09;;;;;;;5.00;3.00;;;15.60;99.90;;;;;;5036775;28;20181;-88
2022/08/10 03:41:43;;;;;;;2.93;2.50;;;15.60;99.90;;;;;;5037005;28;20201;-88
2022/08/10 03:44:12;;;;;;;3.20;2.90;;;15.50;99.90;;;;;;5036895;28;20174;-88
2022/08/10 03:46:41;;;;;;;4.00;2.57;;;15.40;99.90;;;;;;5038552;28;20285;-88
2022/08/10 03:49:10;;;;;;;4.37;3.07;;;15.30;99.90;;;;;;5038129;28;20228;-88
2022/08/10 03:51:37;;;;;;;2.90;2.70;;;15.30;99.90;;;;;;5036989;28;20198;-87
2022/08/10 03:54:03;;;;;;;4.33;3.03;;;15.40;99.90;;;;;;5036712;28;20181;-88
2022/08/10 03:56:30;;;;;;;3.37;2.67;;;15.30;99.90;;;;;;5037593;28;20201;-87
2022/08/10 03:58:57;;;;;;;3.73;2.83;;;15.30;99.90;;;;;;5064948;28;20185;-87
2022/08/10 04:01:37;;;;;;;3.50;2.90;;;15.30;99.90;;;;;;5040220;28;20194;-88
2022/08/10 04:04:03;;;;;;;3.50;3.20;;;15.30;99.90;;;;;;5036814;28;20665;-88
2022/08/10 04:06:30;;;;;;;4.13;3.00;;;15.40;99.90;;;;;;5036816;28;20186;-88
2022/08/10 04:08:57;;;;;;;5.40;3.20;;;15.40;99.90;;;;;;5037079;28;20181;-88
2022/08/10 04:11:23;;;;;;;4.53;3.13;;;15.30;99.90;;;;;;5036420;28;20245;-87
2022/08/10 04:13:49;;;;;;;4.47;2.87;;;15.30;99.90;;;;;;5042912;28;20196;-87
2022/08/10 04:16:15;;;;;;;4.30;2.90;;;15.30;99.90;;;;;;5051319;28;20233;-88
2022/08/10 04:18:41;;;;;;;4.60;3.10;;;15.20;99.90;;;;;;5037381;28;20364;-88
2022/08/10 04:21:36;;;;;;;4.30;3.03;;;15.20;99.90;;;;;;5036227;28;20201;-88
2022/08/10 04:24:07;;;;;;;22.60;3.23;;;15.20;99.90;;;;;;5035549;28;20204;-88
2022/08/10 04:26:33;;;;;;;3.37;3.07;;;15.20;99.90;;;;;;5037558;28;20193;-87
2022/08/10 04:28:59;;;;;;;3.90;3.37;;;15.20;99.90;;;;;;5063060;28;20221;-87
2022/08/10 04:31:26;;;;;;;4.03;3.27;;;15.30;99.90;;;;;;5041681;28;20295;-87
2022/08/10 04:33:54;;;;;;;3.60;2.80;;;15.20;99.90;;;;;;5036867;28;20186;-88
2022/08/10 04:36:22;;;;;;;3.00;2.80;;;15.20;99.90;;;;;;5036465;28;20241;-88
2022/08/10 04:38:50;;;;;;;5.50;3.03;;;15.10;99.90;;;;;;5036650;28;20182;-87
2022/08/10 04:41:16;;;;;;;4.27;3.37;;;15.00;99.90;;;;;;5036236;28;20228;-87
2022/08/10 04:43:42;;;;;;;4.53;3.33;;;14.90;99.90;;;;;;5036097;28;20181;-88
2022/08/10 04:46:08;;;;;;;3.20;2.80;;;14.90;99.90;;;;;;5036137;28;20184;-87
2022/08/10 04:48:35;;;;;;;3.50;3.20;;;14.90;99.90;;;;;;5035643;28;20188;-87
2022/08/10 04:51:02;;;;;;;4.93;3.20;;;14.90;99.90;;;;;;5052171;28;20240;-87
2022/08/10 04:53:28;;;;;;;3.27;2.97;;;14.90;99.90;;;;;;5052364;28;20212;-88
2022/08/10 04:55:54;;;;;;;3.70;3.30;;;14.90;99.90;;;;;;5035181;28;20236;-88
2022/08/10 04:58:20;;;;;;;3.93;2.73;;;14.90;99.90;;;;;;5035986;28;20257;-88
2022/08/10 05:00:51;;;;;;;3.37;2.97;;;14.90;99.90;;;;;;5035199;28;20178;-87
2022/08/10 05:03:17;;;;;;;6.53;3.47;;;15.00;99.90;;;;;;5035652;28;20220;-87
2022/08/10 05:05:43;;;;;;;3.57;2.90;;;15.00;99.90;;;;;;5036059;28;20178;-87
2022/08/10 05:08:09;;;;;;;3.63;3.33;;;15.00;99.90;;;;;;5035666;28;20220;-88
2022/08/10 05:10:37;;;;;;;3.80;3.50;;;15.00;99.90;;;;;;5035787;28;20180;-87
2022/08/10 05:13:05;;;;;;;4.30;3.70;;;15.10;99.90;;;;;;5052601;28;20264;-87
2022/08/10 05:15:31;;;;;;;3.17;2.97;;;15.20;99.90;;;;;;5052160;28;20182;-87
2022/08/10 05:17:58;;;;;;;4.77;3.53;;;15.30;99.90;;;;;;5052186;28;20235;-87
2022/08/10 05:20:24;;;;;;;3.43;3.13;;;15.40;99.90;;;;;;5035461;28;20203;-87
2022/08/10 05:22:51;;;;;;;4.93;3.77;;;15.50;99.90;;;;;;5035737;28;20229;-88
2022/08/10 05:25:18;;;;;;;5.90;3.53;;;15.60;99.90;;;;;;5035113;28;20210;-87
2022/08/10 05:27:45;;;;;;;3.40;2.80;;;15.70;99.90;;;;;;5045084;28;20178;-87
2022/08/10 05:30:18;;;;;;;6.07;3.27;;;15.80;99.90;;;;;;5030746;28;20280;-88
2022/08/10 05:32:45;;;;;;;6.10;3.20;;;16.00;99.90;;;;;;5052165;28;20229;-87
2022/08/10 05:35:11;;;;;;;5.83;3.47;;;16.10;99.90;;;;;;5052038;28;20181;-88
2022/08/10 05:37:37;;;;;;;3.60;3.23;;;16.20;99.90;;;;;;5035063;28;20213;-87
2022/08/10 05:40:06;;;;;;;5.90;3.47;;;16.30;99.90;;;;;;5030143;28;20188;-88
2022/08/10 05:42:33;;;;;;;4.37;3.20;;;16.40;99.90;;;;;;5030351;28;20228;-88
2022/08/10 05:44:59;;;;;;;5.03;3.57;;;16.50;99.90;;;;;;5035296;28;20257;-88
2022/08/10 05:47:25;;;;;;;3.67;3.10;;;16.70;99.90;;;;;;5035296;28;20186;-88
2022/08/10 05:49:52;;;;;;;4.17;3.43;;;16.80;99.90;;;;;;5018973;28;20181;-87
2022/08/10 05:52:18;;;;;;;3.70;3.40;;;17.00;99.90;;;;;;5035189;28;20198;-88
2022/08/10 05:54:46;;;;;;;5.30;3.33;;;17.10;99.90;;;;;;5052146;28;20193;-88
2022/08/10 05:57:15;;;;;;;3.57;3.20;;;17.10;99.90;;;;;;5032949;28;20233;-87
2022/08/10 05:59:50;;;;;;;3.43;3.13;;;17.20;99.90;;;;;;5030073;28;20185;-87
2022/08/10 06:02:25;;;;;;;3.87;3.00;;;17.30;99.90;;;;;;5035291;28;20197;-88
2022/08/10 06:05:15;;;;;;;3.50;3.20;;;17.40;99.90;;;;;;5035081;28;20173;-87
2022/08/10 06:07:59;;;;;;;3.50;3.20;;;17.50;99.90;;;;;;5031230;28;20185;-89
2022/08/10 06:10:46;;;;;;;3.53;3.20;;;17.60;99.90;;;;;;5034445;28;20178;-89
2022/08/10 06:16:09;;;;;;;4.57;3.57;;;18.00;99.90;;;;;;5067266;28;20202;-88
2022/08/10 06:22:03;;;;;;;3.45;3.13;;;18.30;99.90;;;;;;5045846;28;20206;-89
2022/08/10 06:24:30;;;;;;;5.20;3.17;;;18.50;99.90;;;;;;5037929;28;20276;-89
2022/08/10 06:26:57;;;;;;;3.33;2.83;;;18.70;99.90;;;;;;5035385;28;20186;-88
2022/08/10 06:29:29;;;;;;;3.60;2.97;;;18.80;99.90;;;;;;5023915;28;20175;-87
2022/08/10 06:32:00;;;;;;;3.50;2.70;;;19.00;99.90;;;;;;5025077;28;20713;-88
2022/08/10 06:34:31;;;;;;;5.10;2.85;;;19.20;99.90;;;;;;5038058;28;20178;-88
2022/08/10 06:37:03;;;;;;;3.35;3.05;;;19.40;99.90;;;;;;5038325;28;20209;-88
2022/08/10 06:39:29;;;;;;;3.15;2.63;;;19.60;99.90;;;;;;5038589;28;20202;-88
2022/08/10 06:42:00;;;;;;;2.55;2.35;;;19.80;99.90;;;;;;5038181;28;20205;-88
2022/08/10 06:44:31;;;;;;;2.53;2.33;;;19.90;99.90;;;;;;5055134;28;20173;-88
2022/08/10 06:47:00;;;;;;;4.10;2.53;;;20.10;99.90;;;;;;5038566;28;20182;-88
2022/08/10 06:49:25;;;;;;;4.55;2.75;;;20.30;99.90;;;;;;5038184;28;20182;-88
2022/08/10 06:51:55;;;;;;;4.72;2.10;;;20.40;99.90;;;;;;5037553;28;20300;-88
2022/08/10 06:54:23;;;;;;;3.00;2.10;;;20.60;99.90;;;;;;5038459;28;20178;-88
2022/08/10 06:56:52;;;;;;;3.50;1.92;;;20.80;99.90;;;;;;5038101;28;20209;-88
2022/08/10 06:59:35;;;;;;;3.55;2.03;;;21.00;99.90;;;;;;5038125;28;20182;-88
2022/08/10 07:02:06;;;;;;;2.10;1.85;;;21.20;99.90;;;;;;5023301;28;20194;-88
2022/08/10 07:04:45;;;;;;;2.78;1.90;;;21.30;99.90;;;;;;5038286;28;20189;-88
2022/08/10 07:07:17;;;;;;;2.58;1.85;;;21.50;99.90;;;;;;5038025;28;20178;-88
2022/08/10 07:09:49;;;;;;;4.43;2.30;;;21.70;99.90;;;;;;5054079;28;20244;-88
2022/08/10 07:12:18;;;;;;;2.40;1.92;;;21.90;99.90;;;;;;5037613;28;20198;-88
2022/08/10 07:14:46;;;;;;;1.95;1.85;;;22.00;99.90;;;;;;5038230;28;20547;-89
2022/08/10 07:17:25;;;;;;;4.38;2.20;;;22.20;99.90;;;;;;5038166;28;20202;-88
2022/08/10 07:19:55;;;;;;;2.55;1.92;;;22.40;99.90;;;;;;5042521;28;20197;-88
2022/08/10 07:22:24;;;;;;;3.15;1.90;;;22.60;99.90;;;;;;5037700;28;20330;-88
2022/08/10 07:24:56;;;;;;;3.85;2.00;;;22.60;99.30;;;;;;5037409;28;20190;-88
2022/08/10 07:27:27;;;;;;;3.28;2.10;;;22.80;98.90;;;;;;5037455;28;20174;-88
2022/08/10 07:29:58;;;;;;;3.05;1.88;;;22.90;98.60;;;;;;5037471;28;20186;-88
2022/08/10 07:32:26;;;;;;;2.53;1.88;;;23.00;98.00;;;;;;5037903;28;20201;-88
2022/08/10 07:34:54;;;;;;;3.83;1.80;;;23.10;97.70;;;;;;5035824;28;20189;-88
2022/08/10 07:37:24;;;;;;;3.40;1.98;;;23.30;97.80;;;;;;5035838;28;20198;-88
2022/08/10 07:39:52;;;;;;;3.40;1.80;;;23.40;97.50;;;;;;5023098;28;20171;-88
2022/08/10 07:42:23;;;;;;;4.68;1.88;;;23.50;97.60;;;;;;5036869;28;20205;-88
2022/08/10 07:44:49;;;;;;;3.50;1.80;;;23.70;96.70;;;;;;5037007;28;20174;-88
2022/08/10 07:47:27;;;;;;;3.00;2.10;;;23.80;96.70;;;;;;5059490;28;20288;-88
2022/08/10 07:50:02;;;;;;;3.47;1.88;;;23.90;96.20;;;;;;5063697;28;20178;-91
2022/08/10 07:52:33;;;;;;;1.90;1.60;;;24.00;95.60;;;;;;5047546;28;20216;-89
2022/08/10 07:55:01;;;;;;;3.15;1.73;;;24.10;95.60;;;;;;5037961;28;20170;-89
2022/08/10 07:57:30;;;;;;;2.30;1.90;;;24.30;95.60;;;;;;5037593;28;20201;-89
2022/08/10 08:00:04;;;;;;;3.35;1.90;;;24.30;95.00;;;;;;5036681;28;20178;-89
2022/08/10 08:02:57;;;;;;;4.32;1.80;;;24.40;95.20;;;;;;5053111;28;20221;-89
2022/08/10 08:05:39;;;;;;;4.35;1.90;;;24.50;94.50;;;;;;5036055;28;20181;-89
2022/08/10 08:08:09;;;;;;;2.15;1.80;;;24.70;94.80;;;;;;5036232;28;20269;-90
2022/08/10 08:10:36;;;;;;;2.53;1.80;;;24.80;94.10;;;;;;5035976;28;20173;-90
2022/08/10 08:13:04;;;;;;;2.13;1.92;;;24.90;94.00;;;;;;5052607;28;20233;-89
2022/08/10 08:15:31;;;;;;;2.05;1.95;;;25.00;93.80;;;;;;5036135;28;20182;-89
2022/08/10 08:18:00;;;;;;;3.88;1.90;;;25.10;93.30;;;;;;5036426;28;20254;-89
2022/08/10 08:20:27;;;;;;;3.55;1.70;;;25.10;93.10;;;;;;5036097;28;20231;-89
2022/08/10 08:22:57;;;;;;;2.47;1.77;;;25.30;93.30;;;;;;5024536;28;20202;-89
2022/08/10 08:25:27;;;;;;;2.53;1.65;;;25.40;93.10;;;;;;5030498;28;20190;-89
2022/08/10 08:27:55;;;;;;;1.90;1.80;;;25.60;92.50;;;;;;5036755;28;20181;-90
2022/08/10 08:30:22;;;;;;;5.30;1.83;;;25.70;92.20;;;;;;5023335;28;20194;-89
2022/08/10 08:32:49;;;;;;;3.20;1.90;;;25.90;91.90;;;;;;5017823;28;20199;-91
2022/08/10 08:35:20;;;;;;;4.78;1.88;;;26.00;91.90;;;;;;5035898;28;20170;-91
2022/08/10 08:37:48;;;;;;;3.15;1.75;;;26.20;91.90;;;;;;5036494;28;20213;-91
2022/08/10 08:40:37;;;;;;;3.00;1.50;;;26.30;91.30;;;;;;5052856;28;20467;-89
2022/08/10 08:43:27;;;;;;;2.63;1.65;;;26.40;91.80;;;;;;5036294;28;20190;-89
2022/08/10 08:46:12;;;;;;;4.90;1.95;;;26.60;92.20;;;;;;5026348;28;20228;-89
2022/08/10 08:49:11;;;;;;;5.75;1.90;;;26.80;91.50;;;;;;5036277;28;20212;-89
2022/08/10 08:51:56;;;;;;;4.38;1.90;;;27.00;91.50;;;;;;5031418;28;20253;-89
2022/08/10 08:54:28;;;;;;;2.78;1.65;;;27.10;90.90;;;;;;5016870;28;20195;-89
2022/08/10 08:57:13;;;;;;;1.98;1.67;;;27.20;90.30;;;;;;5035309;28;20277;-89
2022/08/10 09:00:01;;;;;;;2.10;1.50;;;27.20;90.10;;;;;;5035496;28;20189;-89
2022/08/10 09:03:04;;;;;;;2.95;1.80;;;27.30;89.30;;;;;;5036216;28;20217;-89
2022/08/10 09:05:45;;;;;;;3.17;1.75;;;27.50;89.00;;;;;;5036017;28;20178;-89
2022/08/10 09:08:40;;;;;;;2.83;1.70;;;27.70;89.20;;;;;;5035708;28;20174;-89
2022/08/10 09:11:17;;;;;;;5.00;1.70;;;27.70;86.70;;;;;;5025595;28;20289;-89
2022/08/10 09:14:14;;;;;;;2.90;1.60;;;27.80;85.40;;;;;;5035338;28;20208;-89
2022/08/10 09:17:02;;;;;;;3.92;1.50;;;27.90;84.90;;;;;;5033990;28;20201;-88
2022/08/10 09:19:51;;;;;;;1.98;1.60;;;27.80;83.40;;;;;;5016133;28;20166;-89
2022/08/10 09:22:39;;;;;;;3.53;1.63;;;27.80;82.50;;;;;;5015185;28;20260;-89
2022/08/10 09:25:23;;;;;;;3.25;1.48;;;27.80;81.20;;;;;;5024342;28;20243;-89
2022/08/10 09:28:00;;;;;;;4.25;1.63;;;28.00;81.70;;;;;;5039747;28;20185;-89
2022/08/10 09:30:34;;;;;;;2.03;1.40;;;28.00;80.50;;;;;;5034419;28;20208;-89
2022/08/10 09:33:23;;;;;;;4.22;1.42;;;28.10;81.90;;;;;;5037048;28;20190;-89
2022/08/10 09:36:00;;;;;;;3.08;1.42;;;28.10;80.10;;;;;;5035007;28;20162;-89
2022/08/10 09:38:40;;;;;;;4.57;1.60;;;28.00;79.90;;;;;;5035108;28;20161;-89
2022/08/10 09:41:56;;;;;;;2.78;1.50;;;28.20;80.10;;;;;;5034868;28;20201;-89
2022/08/10 09:44:46;;;;;;;2.30;1.42;;;28.20;80.10;;;;;;5035171;28;20177;-88
2022/08/10 09:47:48;;;;;;;2.83;1.30;;;28.40;80.70;;;;;;5016623;28;20253;-89
2022/08/10 09:50:39;;;;;;;2.53;1.45;;;28.60;79.70;;;;;;5032420;28;20190;-89
2022/08/10 09:53:37;;;;;;;2.45;1.60;;;28.80;78.70;;;;;;5015799;28;20175;-89
2022/08/10 09:56:34;;;;;;;3.22;1.38;;;28.80;79.00;;;;;;5032131;28;20226;-89
2022/08/10 09:59:09;;;;;;;2.55;1.40;;;28.90;78.50;;;;;;5025242;28;20204;-89
2022/08/10 10:01:57;;;;;;;1.83;1.50;;;28.90;78.60;;;;;;5038703;28;20288;-89
2022/08/10 10:04:41;;;;;;;2.95;1.67;;;29.00;78.80;;;;;;5038244;28;20181;-89
2022/08/10 10:07:20;;;;;;;1.95;1.42;;;29.20;78.10;;;;;;5046582;28;20171;-89
2022/08/10 10:10:07;;;;;;;3.35;1.35;;;29.40;76.60;;;;;;5020672;28;20186;-89
2022/08/10 10:13:08;;;;;;;2.60;1.65;;;29.40;76.20;;;;;;5035085;28;20210;-89
2022/08/10 10:15:58;;;;;;;2.85;1.70;;;29.30;74.50;;;;;;5019262;28;20177;-89
2022/08/10 10:18:46;;;;;;;3.13;1.50;;;29.20;76.40;;;;;;5019131;28;20194;-88
2022/08/10 10:21:36;;;;;;;1.50;1.40;;;29.20;76.00;;;;;;5018823;28;20252;-89
2022/08/10 10:24:14;;;;;;;1.45;1.30;;;29.40;74.50;;;;;;5031195;28;20655;-89
2022/08/10 10:26:58;;;;;;;2.35;1.60;;;29.40;75.10;;;;;;5030075;28;20178;-88
2022/08/10 10:29:58;;;;;;;3.90;1.65;;;29.40;73.40;;;;;;5041805;28;20178;-89
2022/08/10 10:33:13;;;;;;;3.60;1.50;;;29.30;75.30;;;;;;5020571;28;20209;-88
2022/08/10 10:35:53;;;;;;;3.13;1.50;;;29.00;74.80;;;;;;4977832;28;20184;-89
2022/08/10 10:38:32;;;;;;;3.03;1.60;;;29.00;75.90;;;;;;4981353;28;20254;-88
2022/08/10 10:41:29;;;;;;;1.70;1.48;;;29.20;74.90;;;;;;5033157;28;20212;-89
2022/08/10 10:44:19;;;;;;;2.28;1.70;;;29.50;75.70;;;;;;5020461;28;20254;-89
2022/08/10 10:47:03;;;;;;;4.13;1.50;;;29.60;73.60;;;;;;5021844;28;20189;-88
2022/08/10 10:49:35;;;;;;;4.20;1.50;;;29.60;73.50;;;;;;5037727;28;20269;-89
2022/08/10 10:52:29;;;;;;;1.52;1.42;;;29.70;73.50;;;;;;5037682;28;20198;-89
2022/08/10 10:55:13;;;;;;;2.08;1.40;;;29.70;73.30;;;;;;5043579;28;20183;-88
2022/08/10 10:58:08;;;;;;;1.70;1.60;;;29.70;73.60;;;;;;5017455;28;20289;-88
2022/08/10 11:00:57;;;;;;;2.80;1.33;;;29.80;71.30;;;;;;5017421;28;20277;-89
2022/08/10 11:03:44;;;;;;;1.77;1.30;;;30.00;70.60;;;;;;5017773;28;20170;-88
2022/08/10 11:06:31;;;;;;;2.50;1.40;;;30.10;70.70;;;;;;5017773;28;20205;-89
2022/08/10 11:09:04;;;;;;;1.65;1.40;;;30.10;71.40;;;;;;5026656;28;20255;-88
2022/08/10 11:11:57;;;;;;;1.48;1.10;;;30.30;70.80;;;;;;5035971;28;20190;-89
2022/08/10 11:14:46;;;;;;;4.63;1.60;;;30.50;70.30;;;;;;5051814;28;20223;-89
2022/08/10 11:17:34;;;;;;;3.17;1.55;;;30.40;70.70;;;;;;5073861;28;20186;-91
2022/08/10 11:20:43;;;;;;;2.13;1.40;;;30.10;70.00;;;;;;5045064;28;20317;-89
2022/08/10 11:23:16;;;;;;;2.40;1.50;;;30.30;69.50;;;;;;5018032;28;20178;-88
2022/08/10 11:25:52;;;;;;;1.42;1.33;;;30.50;69.60;;;;;;5018180;28;20174;-89
2022/08/10 11:28:35;;;;;;;4.28;1.42;;;30.60;70.00;;;;;;5034927;28;20171;-89
2022/08/10 11:31:38;;;;;;;1.77;1.35;;;30.80;68.50;;;;;;5036929;28;20229;-89
2022/08/10 11:34:22;;;;;;;2.05;1.20;;;30.70;67.70;;;;;;5037395;28;20174;-89
2022/08/10 11:40:28;;;;;;;2.50;1.40;;;30.70;67.70;;;;;;5048407;28;20178;-87
2022/08/10 11:43:14;;;;;;;1.67;1.58;;;30.50;66.80;;;;;;5037532;28;20189;-87
2022/08/10 11:45:46;;;;;;;4.03;1.58;;;30.80;67.90;;;;;;5052359;28;20174;-87
2022/08/10 11:48:17;;;;;;;3.53;1.73;;;30.80;68.20;;;;;;5037230;28;20174;-87
2022/08/10 11:50:50;;;;;;;2.20;1.50;;;31.10;67.90;;;;;;5036379;28;20209;-88
2022/08/10 11:53:35;;;;;;;1.77;1.42;;;31.10;67.50;;;;;;5037470;28;20182;-88
2022/08/10 11:56:01;;;;;;;2.88;1.58;;;31.10;67.90;;;;;;5037442;28;20238;-88
2022/08/10 12:01:30;;;;;;;2.75;1.60;;;31.30;66.70;;;;;;5053610;28;20201;-88
2022/08/10 12:03:59;;;;;;;3.97;1.52;;;31.40;66.20;;;;;;5037239;28;20236;-89
2022/08/10 12:06:27;;;;;;;1.60;1.38;;;31.50;66.20;;;;;;5037028;28;20207;-88
2022/08/10 12:08:56;;;;;;;3.33;1.73;;;31.50;66.70;;;;;;5053130;28;20207;-88
2022/08/10 12:11:25;;;;;;;2.05;1.27;;;31.50;64.50;;;;;;5040422;28;20217;-88
2022/08/10 12:14:29;;;;;;;1.40;1.30;;;31.70;65.50;;;;;;5044433;28;20182;-89
2022/08/10 12:17:07;;;;;;;1.90;1.20;;;31.70;64.70;;;;;;5030795;28;20202;-89
2022/08/10 12:19:38;;;;;;;2.15;1.38;;;31.70;63.80;;;;;;5038621;28;20190;-89
2022/08/10 12:22:09;;;;;;;2.00;1.23;;;31.70;64.00;;;;;;5038373;28;20234;-89
2022/08/10 12:24:55;;;;;;;3.55;1.40;;;31.90;63.40;;;;;;5027290;28;20198;-88
2022/08/10 12:27:30;;;;;;;2.22;1.48;;;32.00;63.10;;;;;;5051540;28;20185;-88
2022/08/10 12:30:08;;;;;;;4.28;1.40;;;32.10;63.60;;;;;;5035724;28;20272;-89
2022/08/10 12:33:06;;;;;;;1.83;1.50;;;32.20;63.50;;;;;;5026490;28;20198;-89
2022/08/10 12:35:44;;;;;;;2.65;1.40;;;32.30;63.20;;;;;;5034479;28;20199;-89
2022/08/10 12:38:43;;;;;;;2.85;1.50;;;32.30;62.70;;;;;;5028589;28;20190;-88
2022/08/10 12:41:18;;;;;;;1.83;1.48;;;32.40;63.40;;;;;;5031068;28;20207;-89
2022/08/10 12:44:13;;;;;;;2.28;1.50;;;32.40;63.90;;;;;;5052902;28;20181;-89
2022/08/10 12:46:58;;;;;;;2.28;1.50;;;32.10;63.00;;;;;;5038751;28;20205;-88
2022/08/10 12:49:36;;;;;;;3.83;1.30;;;32.20;64.60;;;;;;5044983;28;20178;-88
2022/08/10 12:52:24;;;;;;;2.22;1.27;;;32.10;63.90;;;;;;5037730;28;20241;-88
2022/08/10 12:54:55;;;;;;;1.52;1.10;;;32.20;62.70;;;;;;5016516;28;20278;-88
2022/08/10 12:57:24;;;;;;;1.77;1.40;;;32.20;62.50;;;;;;5034571;28;20197;-88
2022/08/10 12:59:59;;;;;;;2.63;1.42;;;32.10;63.10;;;;;;5022176;28;20186;-89
2022/08/10 13:02:32;;;;;;;2.97;1.55;;;32.20;63.70;;;;;;5039680;28;20414;-89
2022/08/10 13:05:03;;;;;;;2.15;1.52;;;32.40;62.90;;;;;;5035690;28;20189;-88
2022/08/10 13:07:37;;;;;;;1.88;1.60;;;32.60;62.50;;;;;;5047390;28;20217;-89
2022/08/10 13:10:11;;;;;;;2.55;1.30;;;32.70;62.10;;;;;;5035768;28;20219;-89
2022/08/10 13:12:55;;;;;;;1.55;1.45;;;32.70;60.00;;;;;;5031728;28;20209;-89
2022/08/10 13:15:30;;;;;;;3.42;1.40;;;32.60;61.40;;;;;;5016506;28;20194;-88
2022/08/10 13:18:00;;;;;;;4.75;1.70;;;32.60;62.10;;;;;;5017181;28;20195;-89
2022/08/10 13:20:34;;;;;;;3.38;1.60;;;32.70;62.70;;;;;;5031497;28;20179;-89
2022/08/10 13:23:04;;;;;;;1.85;1.50;;;32.80;61.80;;;;;;5032049;28;20250;-89
2022/08/10 13:25:39;;;;;;;2.08;1.60;;;32.80;61.10;;;;;;5031805;28;20251;-89
2022/08/10 13:28:46;;;;;;;1.98;1.40;;;32.80;60.90;;;;;;5035233;28;20172;-88
2022/08/10 13:31:19;;;;;;;2.63;1.40;;;32.80;61.80;;;;;;5028534;28;20217;-88
2022/08/10 13:33:50;;;;;;;2.05;1.60;;;32.90;61.50;;;;;;5023823;28;20166;-89
2022/08/10 13:36:28;;;;;;;1.58;1.35;;;32.80;63.50;;;;;;5035903;28;20190;-88
2022/08/10 13:39:00;;;;;;;1.48;1.38;;;33.00;63.00;;;;;;5035549;28;20173;-88
2022/08/10 13:41:46;;;;;;;1.60;1.50;;;33.00;62.50;;;;;;5034180;28;20225;-88
2022/08/10 13:44:45;;;;;;;2.70;1.23;;;32.80;63.00;;;;;;5035133;28;20170;-88